sensor_id;sensor_type;location;lat;lon;timestamp;P1;durP1;ratioP1;P2;durP2;ratioP2
72559;SDS011;62987;52.382;9.752;2022-08-30T00:00:21;2.50;;;1.20;;
72559;SDS011;62987;52.382;9.752;2022-08-30T00:03:09;2.20;;;1.00;;
72559;SDS011;62987;52.382;9.752;2022-08-30T00:05:40;1.98;;;1.00;;
72559;SDS011;62987;52.382;9.752;2022-08-30T00:08:09;2.47;;;1.15;;
72559;SDS011;62987;52.382;9.752;2022-08-30T00:10:40;2.85;;;1.20;;
72559;SDS011;62987;52.382;9.752;2022-08-30T00:13:08;3.10;;;1.20;;
72559;SDS011;62987;52.382;9.752;2022-08-30T00:15:38;2.20;;;1.10;;
72559;SDS011;62987;52.382;9.752;2022-08-30T00:18:08;2.42;;;1.00;;
72559;SDS011;62987;52.382;9.752;2022-08-30T00:20:37;3.40;;;1.73;;
72559;SDS011;62987;52.382;9.752;2022-08-30T00:23:05;3.83;;;1.20;;
72559;SDS011;62987;52.382;9.752;2022-08-30T00:25:33;2.30;;;1.20;;
72559;SDS011;62987;52.382;9.752;2022-08-30T00:28:02;5.47;;;1.30;;
72559;SDS011;62987;52.382;9.752;2022-08-30T00:30:30;3.38;;;1.40;;
72559;SDS011;62987;52.382;9.752;2022-08-30T00:32:59;3.45;;;1.20;;
72559;SDS011;62987;52.382;9.752;2022-08-30T00:35:28;2.60;;;1.25;;
72559;SDS011;62987;52.382;9.752;2022-08-30T00:37:56;3.45;;;1.70;;
72559;SDS011;62987;52.382;9.752;2022-08-30T00:40:25;3.33;;;1.40;;
72559;SDS011;62987;52.382;9.752;2022-08-30T00:42:54;2.75;;;1.25;;
72559;SDS011;62987;52.382;9.752;2022-08-30T00:45:27;2.88;;;1.33;;
72559;SDS011;62987;52.382;9.752;2022-08-30T00:47:56;3.17;;;1.30;;
72559;SDS011;62987;52.382;9.752;2022-08-30T00:50:28;3.78;;;1.38;;
72559;SDS011;62987;52.382;9.752;2022-08-30T00:53:02;4.00;;;1.40;;
72559;SDS011;62987;52.382;9.752;2022-08-30T00:55:32;2.63;;;1.25;;
72559;SDS011;62987;52.382;9.752;2022-08-30T00:58:05;3.15;;;1.27;;
72559;SDS011;62987;52.382;9.752;2022-08-30T01:00:35;3.10;;;1.30;;
72559;SDS011;62987;52.382;9.752;2022-08-30T01:03:03;4.82;;;1.25;;
72559;SDS011;62987;52.382;9.752;2022-08-30T01:05:36;3.67;;;1.38;;
72559;SDS011;62987;52.382;9.752;2022-08-30T01:08:05;3.08;;;1.20;;
72559;SDS011;62987;52.382;9.752;2022-08-30T01:10:33;2.83;;;1.13;;
72559;SDS011;62987;52.382;9.752;2022-08-30T01:13:03;2.97;;;1.55;;
72559;SDS011;62987;52.382;9.752;2022-08-30T01:15:32;5.57;;;1.55;;
72559;SDS011;62987;52.382;9.752;2022-08-30T01:18:01;3.50;;;1.27;;
72559;SDS011;62987;52.382;9.752;2022-08-30T01:20:34;2.67;;;1.30;;
72559;SDS011;62987;52.382;9.752;2022-08-30T01:23:11;2.67;;;1.30;;
72559;SDS011;62987;52.382;9.752;2022-08-30T01:25:44;2.92;;;1.27;;
72559;SDS011;62987;52.382;9.752;2022-08-30T01:28:17;3.88;;;1.50;;
72559;SDS011;62987;52.382;9.752;2022-08-30T01:30:47;3.92;;;1.40;;
72559;SDS011;62987;52.382;9.752;2022-08-30T01:33:15;3.70;;;1.30;;
72559;SDS011;62987;52.382;9.752;2022-08-30T01:35:47;3.15;;;1.30;;
72559;SDS011;62987;52.382;9.752;2022-08-30T01:38:20;3.20;;;1.40;;
72559;SDS011;62987;52.382;9.752;2022-08-30T01:40:55;3.20;;;1.40;;
72559;SDS011;62987;52.382;9.752;2022-08-30T01:43:25;2.72;;;1.45;;
72559;SDS011;62987;52.382;9.752;2022-08-30T01:45:54;2.42;;;1.23;;
72559;SDS011;62987;52.382;9.752;2022-08-30T01:48:22;4.00;;;1.42;;
72559;SDS011;62987;52.382;9.752;2022-08-30T01:50:56;3.40;;;1.52;;
72559;SDS011;62987;52.382;9.752;2022-08-30T01:53:26;2.97;;;1.40;;
72559;SDS011;62987;52.382;9.752;2022-08-30T01:55:55;3.95;;;1.88;;
72559;SDS011;62987;52.382;9.752;2022-08-30T01:58:23;4.40;;;1.55;;
72559;SDS011;62987;52.382;9.752;2022-08-30T02:00:51;2.95;;;1.38;;
72559;SDS011;62987;52.382;9.752;2022-08-30T02:03:23;3.33;;;1.42;;
72559;SDS011;62987;52.382;9.752;2022-08-30T02:05:56;4.43;;;1.67;;
72559;SDS011;62987;52.382;9.752;2022-08-30T02:08:24;3.15;;;1.65;;
72559;SDS011;62987;52.382;9.752;2022-08-30T02:10:56;8.52;;;1.90;;
72559;SDS011;62987;52.382;9.752;2022-08-30T02:13:25;3.70;;;1.92;;
72559;SDS011;62987;52.382;9.752;2022-08-30T02:15:54;4.72;;;1.52;;
72559;SDS011;62987;52.382;9.752;2022-08-30T02:18:22;2.92;;;1.52;;
72559;SDS011;62987;52.382;9.752;2022-08-30T02:20:52;4.00;;;1.90;;
72559;SDS011;62987;52.382;9.752;2022-08-30T02:23:20;5.05;;;1.73;;
72559;SDS011;62987;52.382;9.752;2022-08-30T02:25:48;3.30;;;1.88;;
72559;SDS011;62987;52.382;9.752;2022-08-30T02:28:17;3.70;;;1.80;;
72559;SDS011;62987;52.382;9.752;2022-08-30T02:30:46;4.55;;;2.28;;
72559;SDS011;62987;52.382;9.752;2022-08-30T02:33:15;3.45;;;1.52;;
72559;SDS011;62987;52.382;9.752;2022-08-30T02:35:44;4.03;;;2.10;;
72559;SDS011;62987;52.382;9.752;2022-08-30T02:38:12;5.28;;;1.52;;
72559;SDS011;62987;52.382;9.752;2022-08-30T02:43:13;5.95;;;1.60;;
72559;SDS011;62987;52.382;9.752;2022-08-30T02:45:43;3.88;;;1.88;;
72559;SDS011;62987;52.382;9.752;2022-08-30T02:48:11;5.15;;;1.80;;
72559;SDS011;62987;52.382;9.752;2022-08-30T02:50:39;5.43;;;1.83;;
72559;SDS011;62987;52.382;9.752;2022-08-30T02:53:08;4.13;;;1.95;;
72559;SDS011;62987;52.382;9.752;2022-08-30T02:55:41;4.20;;;2.10;;
72559;SDS011;62987;52.382;9.752;2022-08-30T02:58:10;3.70;;;2.13;;
72559;SDS011;62987;52.382;9.752;2022-08-30T03:00:38;3.65;;;1.73;;
72559;SDS011;62987;52.382;9.752;2022-08-30T03:03:09;3.53;;;1.83;;
72559;SDS011;62987;52.382;9.752;2022-08-30T03:05:37;4.38;;;2.13;;
72559;SDS011;62987;52.382;9.752;2022-08-30T03:08:07;4.75;;;2.47;;
72559;SDS011;62987;52.382;9.752;2022-08-30T03:10:38;5.47;;;2.70;;
72559;SDS011;62987;52.382;9.752;2022-08-30T03:13:07;5.65;;;2.60;;
72559;SDS011;62987;52.382;9.752;2022-08-30T03:15:36;5.43;;;2.58;;
72559;SDS011;62987;52.382;9.752;2022-08-30T03:18:05;10.20;;;3.70;;
72559;SDS011;62987;52.382;9.752;2022-08-30T03:20:35;5.82;;;3.00;;
72559;SDS011;62987;52.382;9.752;2022-08-30T03:23:04;5.88;;;2.85;;
72559;SDS011;62987;52.382;9.752;2022-08-30T03:25:32;5.43;;;3.03;;
72559;SDS011;62987;52.382;9.752;2022-08-30T03:28:00;5.57;;;2.55;;
72559;SDS011;62987;52.382;9.752;2022-08-30T03:30:29;9.90;;;3.85;;
72559;SDS011;62987;52.382;9.752;2022-08-30T03:32:57;5.97;;;2.80;;
72559;SDS011;62987;52.382;9.752;2022-08-30T03:35:26;6.80;;;3.45;;
72559;SDS011;62987;52.382;9.752;2022-08-30T03:38:00;7.95;;;3.33;;
72559;SDS011;62987;52.382;9.752;2022-08-30T03:40:28;8.23;;;3.60;;
72559;SDS011;62987;52.382;9.752;2022-08-30T03:42:56;9.88;;;4.60;;
72559;SDS011;62987;52.382;9.752;2022-08-30T03:45:25;7.80;;;3.75;;
72559;SDS011;62987;52.382;9.752;2022-08-30T03:47:53;7.97;;;4.20;;
72559;SDS011;62987;52.382;9.752;2022-08-30T03:50:21;8.15;;;3.85;;
72559;SDS011;62987;52.382;9.752;2022-08-30T03:52:49;8.20;;;4.10;;
72559;SDS011;62987;52.382;9.752;2022-08-30T03:55:19;9.50;;;4.88;;
72559;SDS011;62987;52.382;9.752;2022-08-30T03:57:47;9.52;;;4.40;;
72559;SDS011;62987;52.382;9.752;2022-08-30T04:00:17;8.10;;;4.07;;
72559;SDS011;62987;52.382;9.752;2022-08-30T04:02:46;9.25;;;3.95;;
72559;SDS011;62987;52.382;9.752;2022-08-30T04:05:14;8.77;;;4.35;;
72559;SDS011;62987;52.382;9.752;2022-08-30T04:07:44;9.35;;;4.53;;
72559;SDS011;62987;52.382;9.752;2022-08-30T04:10:12;8.48;;;4.75;;
72559;SDS011;62987;52.382;9.752;2022-08-30T04:12:41;9.23;;;4.35;;
72559;SDS011;62987;52.382;9.752;2022-08-30T04:15:15;10.55;;;5.55;;
72559;SDS011;62987;52.382;9.752;2022-08-30T04:17:45;8.35;;;4.45;;
72559;SDS011;62987;52.382;9.752;2022-08-30T04:20:14;8.52;;;4.82;;
72559;SDS011;62987;52.382;9.752;2022-08-30T04:22:42;9.68;;;4.55;;
72559;SDS011;62987;52.382;9.752;2022-08-30T04:25:11;10.93;;;4.82;;
72559;SDS011;62987;52.382;9.752;2022-08-30T04:27:43;7.32;;;3.85;;
72559;SDS011;62987;52.382;9.752;2022-08-30T04:30:13;9.40;;;3.92;;
72559;SDS011;62987;52.382;9.752;2022-08-30T04:32:43;8.02;;;4.13;;
72559;SDS011;62987;52.382;9.752;2022-08-30T04:35:11;6.45;;;3.13;;
72559;SDS011;62987;52.382;9.752;2022-08-30T04:37:40;7.90;;;3.97;;
72559;SDS011;62987;52.382;9.752;2022-08-30T04:40:09;8.82;;;4.47;;
72559;SDS011;62987;52.382;9.752;2022-08-30T04:42:37;8.82;;;4.55;;
72559;SDS011;62987;52.382;9.752;2022-08-30T04:45:09;7.10;;;3.75;;
72559;SDS011;62987;52.382;9.752;2022-08-30T04:47:39;6.47;;;3.60;;
72559;SDS011;62987;52.382;9.752;2022-08-30T04:50:08;7.85;;;3.80;;
72559;SDS011;62987;52.382;9.752;2022-08-30T04:52:38;6.13;;;3.10;;
72559;SDS011;62987;52.382;9.752;2022-08-30T04:55:06;7.68;;;3.40;;
72559;SDS011;62987;52.382;9.752;2022-08-30T04:57:36;7.43;;;3.78;;
72559;SDS011;62987;52.382;9.752;2022-08-30T05:00:06;8.48;;;4.30;;
72559;SDS011;62987;52.382;9.752;2022-08-30T05:02:39;6.63;;;3.20;;
72559;SDS011;62987;52.382;9.752;2022-08-30T05:05:08;6.60;;;3.50;;
72559;SDS011;62987;52.382;9.752;2022-08-30T05:07:54;5.63;;;3.00;;
72559;SDS011;62987;52.382;9.752;2022-08-30T05:10:23;5.53;;;2.90;;
72559;SDS011;62987;52.382;9.752;2022-08-30T05:12:52;6.30;;;3.28;;
72559;SDS011;62987;52.382;9.752;2022-08-30T05:15:22;5.97;;;3.10;;
72559;SDS011;62987;52.382;9.752;2022-08-30T05:17:50;6.15;;;3.35;;
72559;SDS011;62987;52.382;9.752;2022-08-30T05:20:18;8.48;;;2.97;;
72559;SDS011;62987;52.382;9.752;2022-08-30T05:22:47;8.10;;;3.47;;
72559;SDS011;62987;52.382;9.752;2022-08-30T05:25:20;6.88;;;3.22;;
72559;SDS011;62987;52.382;9.752;2022-08-30T05:27:50;8.95;;;3.83;;
72559;SDS011;62987;52.382;9.752;2022-08-30T05:30:19;9.50;;;4.00;;
72559;SDS011;62987;52.382;9.752;2022-08-30T05:32:49;8.48;;;4.03;;
72559;SDS011;62987;52.382;9.752;2022-08-30T05:35:18;8.30;;;3.85;;
72559;SDS011;62987;52.382;9.752;2022-08-30T05:37:51;8.65;;;4.28;;
72559;SDS011;62987;52.382;9.752;2022-08-30T05:40:19;7.95;;;3.75;;
72559;SDS011;62987;52.382;9.752;2022-08-30T05:42:49;10.38;;;4.57;;
72559;SDS011;62987;52.382;9.752;2022-08-30T05:45:17;7.78;;;3.88;;
72559;SDS011;62987;52.382;9.752;2022-08-30T05:47:45;8.68;;;4.22;;
72559;SDS011;62987;52.382;9.752;2022-08-30T05:50:15;9.75;;;4.03;;
72559;SDS011;62987;52.382;9.752;2022-08-30T05:52:43;7.72;;;3.45;;
72559;SDS011;62987;52.382;9.752;2022-08-30T05:55:11;8.15;;;3.95;;
72559;SDS011;62987;52.382;9.752;2022-08-30T05:57:40;9.38;;;4.57;;
72559;SDS011;62987;52.382;9.752;2022-08-30T06:00:09;10.20;;;4.45;;
72559;SDS011;62987;52.382;9.752;2022-08-30T06:02:40;9.55;;;4.28;;
72559;SDS011;62987;52.382;9.752;2022-08-30T06:05:09;7.60;;;3.60;;
72559;SDS011;62987;52.382;9.752;2022-08-30T06:07:41;8.65;;;4.40;;
72559;SDS011;62987;52.382;9.752;2022-08-30T06:10:10;10.18;;;4.90;;
72559;SDS011;62987;52.382;9.752;2022-08-30T06:12:40;9.75;;;4.38;;
72559;SDS011;62987;52.382;9.752;2022-08-30T06:15:09;11.77;;;4.93;;
72559;SDS011;62987;52.382;9.752;2022-08-30T06:17:41;9.77;;;5.00;;
72559;SDS011;62987;52.382;9.752;2022-08-30T06:20:10;8.57;;;4.10;;
72559;SDS011;62987;52.382;9.752;2022-08-30T06:22:39;11.63;;;4.75;;
72559;SDS011;62987;52.382;9.752;2022-08-30T06:25:09;9.45;;;4.63;;
72559;SDS011;62987;52.382;9.752;2022-08-30T06:27:38;11.18;;;5.28;;
72559;SDS011;62987;52.382;9.752;2022-08-30T06:30:07;8.70;;;4.35;;
72559;SDS011;62987;52.382;9.752;2022-08-30T06:32:36;12.18;;;5.18;;
72559;SDS011;62987;52.382;9.752;2022-08-30T06:35:06;10.55;;;4.63;;
72559;SDS011;62987;52.382;9.752;2022-08-30T06:37:35;12.45;;;5.00;;
72559;SDS011;62987;52.382;9.752;2022-08-30T06:40:03;12.13;;;4.97;;
72559;SDS011;62987;52.382;9.752;2022-08-30T06:42:34;12.70;;;5.13;;
72559;SDS011;62987;52.382;9.752;2022-08-30T06:45:02;16.00;;;6.15;;
72559;SDS011;62987;52.382;9.752;2022-08-30T06:47:37;10.20;;;4.90;;
72559;SDS011;62987;52.382;9.752;2022-08-30T06:50:05;12.60;;;5.75;;
72559;SDS011;62987;52.382;9.752;2022-08-30T06:52:37;13.88;;;4.97;;
72559;SDS011;62987;52.382;9.752;2022-08-30T06:55:06;12.05;;;4.72;;
72559;SDS011;62987;52.382;9.752;2022-08-30T06:57:36;11.43;;;5.25;;
72559;SDS011;62987;52.382;9.752;2022-08-30T07:00:06;10.10;;;4.38;;
72559;SDS011;62987;52.382;9.752;2022-08-30T07:02:36;10.45;;;4.95;;
72559;SDS011;62987;52.382;9.752;2022-08-30T07:05:05;12.48;;;5.63;;
72559;SDS011;62987;52.382;9.752;2022-08-30T07:07:42;13.88;;;5.95;;
72559;SDS011;62987;52.382;9.752;2022-08-30T07:10:10;10.38;;;5.30;;
72559;SDS011;62987;52.382;9.752;2022-08-30T07:12:40;10.73;;;4.85;;
72559;SDS011;62987;52.382;9.752;2022-08-30T07:15:09;11.27;;;4.60;;
72559;SDS011;62987;52.382;9.752;2022-08-30T07:17:38;16.50;;;4.90;;
72559;SDS011;62987;52.382;9.752;2022-08-30T07:22:51;11.65;;;5.30;;
72559;SDS011;62987;52.382;9.752;2022-08-30T07:25:19;11.50;;;5.22;;
72559;SDS011;62987;52.382;9.752;2022-08-30T07:27:48;8.93;;;4.50;;
72559;SDS011;62987;52.382;9.752;2022-08-30T07:30:17;11.98;;;5.40;;
72559;SDS011;62987;52.382;9.752;2022-08-30T07:32:46;11.52;;;4.82;;
72559;SDS011;62987;52.382;9.752;2022-08-30T07:35:14;10.45;;;4.90;;
72559;SDS011;62987;52.382;9.752;2022-08-30T07:37:42;11.50;;;5.60;;
72559;SDS011;62987;52.382;9.752;2022-08-30T07:40:11;9.30;;;4.47;;
72559;SDS011;62987;52.382;9.752;2022-08-30T07:42:39;9.27;;;4.90;;
72559;SDS011;62987;52.382;9.752;2022-08-30T07:45:09;14.25;;;5.90;;
72559;SDS011;62987;52.382;9.752;2022-08-30T07:47:38;18.38;;;6.75;;
72559;SDS011;62987;52.382;9.752;2022-08-30T07:50:07;14.45;;;5.15;;
72559;SDS011;62987;52.382;9.752;2022-08-30T07:52:35;17.58;;;6.38;;
72559;SDS011;62987;52.382;9.752;2022-08-30T07:55:08;15.35;;;5.90;;
72559;SDS011;62987;52.382;9.752;2022-08-30T07:57:36;17.15;;;6.72;;
72559;SDS011;62987;52.382;9.752;2022-08-30T08:00:05;15.30;;;6.35;;
72559;SDS011;62987;52.382;9.752;2022-08-30T08:02:38;16.52;;;6.57;;
72559;SDS011;62987;52.382;9.752;2022-08-30T08:05:08;15.25;;;6.50;;
72559;SDS011;62987;52.382;9.752;2022-08-30T08:07:42;21.25;;;7.55;;
72559;SDS011;62987;52.382;9.752;2022-08-30T08:10:10;20.17;;;8.10;;
72559;SDS011;62987;52.382;9.752;2022-08-30T08:12:39;24.17;;;7.55;;
72559;SDS011;62987;52.382;9.752;2022-08-30T08:15:07;20.10;;;7.28;;
72559;SDS011;62987;52.382;9.752;2022-08-30T08:17:36;20.20;;;7.93;;
72559;SDS011;62987;52.382;9.752;2022-08-30T08:20:06;22.33;;;8.50;;
72559;SDS011;62987;52.382;9.752;2022-08-30T08:22:35;20.70;;;8.23;;
72559;SDS011;62987;52.382;9.752;2022-08-30T08:25:06;18.65;;;8.35;;
72559;SDS011;62987;52.382;9.752;2022-08-30T08:27:34;17.30;;;7.25;;
72559;SDS011;62987;52.382;9.752;2022-08-30T08:30:02;23.55;;;8.30;;
72559;SDS011;62987;52.382;9.752;2022-08-30T08:32:31;18.50;;;7.97;;
72559;SDS011;62987;52.382;9.752;2022-08-30T08:34:59;19.95;;;7.15;;
72559;SDS011;62987;52.382;9.752;2022-08-30T08:37:29;17.90;;;7.50;;
72559;SDS011;62987;52.382;9.752;2022-08-30T08:39:57;18.17;;;8.10;;
72559;SDS011;62987;52.382;9.752;2022-08-30T08:42:27;19.17;;;7.13;;
72559;SDS011;62987;52.382;9.752;2022-08-30T08:45:04;15.95;;;5.93;;
72559;SDS011;62987;52.382;9.752;2022-08-30T08:47:39;10.95;;;4.57;;
72559;SDS011;62987;52.382;9.752;2022-08-30T08:50:18;9.73;;;4.18;;
72559;SDS011;62987;52.382;9.752;2022-08-30T08:52:49;13.43;;;6.00;;
72559;SDS011;62987;52.382;9.752;2022-08-30T08:55:57;19.13;;;7.40;;
72559;SDS011;62987;52.382;9.752;2022-08-30T08:58:26;16.70;;;7.18;;
72559;SDS011;62987;52.382;9.752;2022-08-30T09:00:57;12.82;;;5.80;;
72559;SDS011;62987;52.382;9.752;2022-08-30T09:03:26;16.20;;;5.90;;
72559;SDS011;62987;52.382;9.752;2022-08-30T09:05:55;11.13;;;5.45;;
72559;SDS011;62987;52.382;9.752;2022-08-30T09:08:25;12.07;;;5.40;;
72559;SDS011;62987;52.382;9.752;2022-08-30T09:10:58;9.60;;;4.45;;
72559;SDS011;62987;52.382;9.752;2022-08-30T09:13:28;8.32;;;3.92;;
72559;SDS011;62987;52.382;9.752;2022-08-30T09:15:56;8.52;;;4.00;;
72559;SDS011;62987;52.382;9.752;2022-08-30T09:18:39;8.13;;;3.65;;
72559;SDS011;62987;52.382;9.752;2022-08-30T09:21:11;7.55;;;3.42;;
72559;SDS011;62987;52.382;9.752;2022-08-30T09:23:49;5.88;;;3.10;;
72559;SDS011;62987;52.382;9.752;2022-08-30T09:26:28;6.72;;;3.42;;
72559;SDS011;62987;52.382;9.752;2022-08-30T09:28:58;6.50;;;3.53;;
72559;SDS011;62987;52.382;9.752;2022-08-30T09:31:27;7.85;;;3.35;;
72559;SDS011;62987;52.382;9.752;2022-08-30T09:33:58;8.20;;;3.85;;
72559;SDS011;62987;52.382;9.752;2022-08-30T09:36:30;7.03;;;2.90;;
72559;SDS011;62987;52.382;9.752;2022-08-30T09:39:03;5.43;;;2.78;;
72559;SDS011;62987;52.382;9.752;2022-08-30T09:41:43;5.55;;;2.50;;
72559;SDS011;62987;52.382;9.752;2022-08-30T09:44:15;6.60;;;3.40;;
72559;SDS011;62987;52.382;9.752;2022-08-30T09:46:48;6.85;;;3.22;;
72559;SDS011;62987;52.382;9.752;2022-08-30T09:49:34;7.07;;;3.38;;
72559;SDS011;62987;52.382;9.752;2022-08-30T09:52:11;6.03;;;2.83;;
72559;SDS011;62987;52.382;9.752;2022-08-30T09:54:51;6.53;;;3.38;;
72559;SDS011;62987;52.382;9.752;2022-08-30T09:57:30;6.95;;;3.00;;
72559;SDS011;62987;52.382;9.752;2022-08-30T10:00:11;6.63;;;3.05;;
72559;SDS011;62987;52.382;9.752;2022-08-30T10:02:55;6.70;;;3.35;;
72559;SDS011;62987;52.382;9.752;2022-08-30T10:05:31;8.63;;;4.00;;
72559;SDS011;62987;52.382;9.752;2022-08-30T10:08:09;9.05;;;4.00;;
72559;SDS011;62987;52.382;9.752;2022-08-30T10:10:48;6.35;;;3.40;;
72559;SDS011;62987;52.382;9.752;2022-08-30T10:13:27;7.18;;;2.72;;
72559;SDS011;62987;52.382;9.752;2022-08-30T10:16:09;5.88;;;3.10;;
72559;SDS011;62987;52.382;9.752;2022-08-30T10:18:47;6.50;;;3.05;;
72559;SDS011;62987;52.382;9.752;2022-08-30T10:21:22;5.47;;;3.00;;
72559;SDS011;62987;52.382;9.752;2022-08-30T10:23:56;5.95;;;2.97;;
72559;SDS011;62987;52.382;9.752;2022-08-30T10:26:29;7.40;;;3.78;;
72559;SDS011;62987;52.382;9.752;2022-08-30T10:29:00;7.43;;;3.70;;
72559;SDS011;62987;52.382;9.752;2022-08-30T10:31:35;7.50;;;3.97;;
72559;SDS011;62987;52.382;9.752;2022-08-30T10:34:11;7.72;;;3.92;;
72559;SDS011;62987;52.382;9.752;2022-08-30T10:36:45;7.13;;;3.75;;
72559;SDS011;62987;52.382;9.752;2022-08-30T10:39:17;6.85;;;4.25;;
72559;SDS011;62987;52.382;9.752;2022-08-30T10:41:52;7.65;;;3.75;;
72559;SDS011;62987;52.382;9.752;2022-08-30T10:44:32;6.13;;;3.25;;
72559;SDS011;62987;52.382;9.752;2022-08-30T10:47:09;6.13;;;3.60;;
72559;SDS011;62987;52.382;9.752;2022-08-30T10:49:49;6.13;;;3.03;;
72559;SDS011;62987;52.382;9.752;2022-08-30T10:52:26;6.03;;;2.88;;
72559;SDS011;62987;52.382;9.752;2022-08-30T10:54:58;6.97;;;2.90;;
72559;SDS011;62987;52.382;9.752;2022-08-30T10:57:30;5.85;;;2.90;;
72559;SDS011;62987;52.382;9.752;2022-08-30T10:59:59;4.80;;;2.70;;
72559;SDS011;62987;52.382;9.752;2022-08-30T11:02:39;6.10;;;2.92;;
72559;SDS011;62987;52.382;9.752;2022-08-30T11:05:43;5.18;;;2.70;;
72559;SDS011;62987;52.382;9.752;2022-08-30T11:08:25;5.28;;;3.00;;
72559;SDS011;62987;52.382;9.752;2022-08-30T11:11:11;4.55;;;2.22;;
72559;SDS011;62987;52.382;9.752;2022-08-30T11:13:49;3.38;;;1.65;;
72559;SDS011;62987;52.382;9.752;2022-08-30T11:16:32;5.10;;;2.35;;
72559;SDS011;62987;52.382;9.752;2022-08-30T11:19:11;4.28;;;2.22;;
72559;SDS011;62987;52.382;9.752;2022-08-30T11:21:46;5.05;;;2.20;;
72559;SDS011;62987;52.382;9.752;2022-08-30T11:24:17;4.75;;;2.33;;
72559;SDS011;62987;52.382;9.752;2022-08-30T11:26:51;4.07;;;2.20;;
72559;SDS011;62987;52.382;9.752;2022-08-30T11:29:31;4.28;;;2.10;;
72559;SDS011;62987;52.382;9.752;2022-08-30T11:38:09;5.82;;;2.42;;
72559;SDS011;62987;52.382;9.752;2022-08-30T11:40:45;4.45;;;1.92;;
72559;SDS011;62987;52.382;9.752;2022-08-30T11:46:20;4.18;;;2.20;;
72559;SDS011;62987;52.382;9.752;2022-08-30T11:49:05;3.70;;;1.55;;
72559;SDS011;62987;52.382;9.752;2022-08-30T11:52:04;3.83;;;1.52;;
72559;SDS011;62987;52.382;9.752;2022-08-30T11:58:05;2.88;;;1.17;;
72559;SDS011;62987;52.382;9.752;2022-08-30T12:00:42;5.85;;;1.70;;
72559;SDS011;62987;52.382;9.752;2022-08-30T12:03:30;4.18;;;1.52;;
72559;SDS011;62987;52.382;9.752;2022-08-30T12:06:01;2.75;;;1.33;;
72559;SDS011;62987;52.382;9.752;2022-08-30T12:11:52;3.38;;;1.60;;
72559;SDS011;62987;52.382;9.752;2022-08-30T12:14:34;3.25;;;1.48;;
72559;SDS011;62987;52.382;9.752;2022-08-30T12:17:11;3.05;;;1.48;;
72559;SDS011;62987;52.382;9.752;2022-08-30T12:20:05;5.18;;;2.35;;
72559;SDS011;62987;52.382;9.752;2022-08-30T12:22:42;3.42;;;1.58;;
72559;SDS011;62987;52.382;9.752;2022-08-30T12:25:19;6.22;;;1.65;;
72559;SDS011;62987;52.382;9.752;2022-08-30T12:28:06;3.00;;;1.45;;
72559;SDS011;62987;52.382;9.752;2022-08-30T12:30:36;2.92;;;1.45;;
72559;SDS011;62987;52.382;9.752;2022-08-30T12:33:08;3.78;;;1.70;;
72559;SDS011;62987;52.382;9.752;2022-08-30T12:35:41;5.07;;;1.55;;
72559;SDS011;62987;52.382;9.752;2022-08-30T12:38:12;3.72;;;1.33;;
72559;SDS011;62987;52.382;9.752;2022-08-30T12:40:54;2.40;;;1.30;;
72559;SDS011;62987;52.382;9.752;2022-08-30T12:43:26;3.45;;;1.20;;
72559;SDS011;62987;52.382;9.752;2022-08-30T12:46:07;2.42;;;1.13;;
72559;SDS011;62987;52.382;9.752;2022-08-30T12:48:41;2.97;;;1.40;;
72559;SDS011;62987;52.382;9.752;2022-08-30T12:51:26;2.40;;;1.20;;
72559;SDS011;62987;52.382;9.752;2022-08-30T12:56:45;6.30;;;1.50;;
72559;SDS011;62987;52.382;9.752;2022-08-30T12:59:42;2.42;;;1.10;;
72559;SDS011;62987;52.382;9.752;2022-08-30T13:02:20;4.75;;;1.73;;
72559;SDS011;62987;52.382;9.752;2022-08-30T13:04:51;4.20;;;1.52;;
72559;SDS011;62987;52.382;9.752;2022-08-30T13:07:26;3.28;;;1.40;;
72559;SDS011;62987;52.382;9.752;2022-08-30T13:10:14;2.78;;;1.25;;
72559;SDS011;62987;52.382;9.752;2022-08-30T13:12:59;3.75;;;1.70;;
72559;SDS011;62987;52.382;9.752;2022-08-30T13:15:29;2.80;;;1.50;;
72559;SDS011;62987;52.382;9.752;2022-08-30T13:18:18;3.00;;;1.17;;
72559;SDS011;62987;52.382;9.752;2022-08-30T13:21:07;4.22;;;1.40;;
72559;SDS011;62987;52.382;9.752;2022-08-30T13:23:48;3.72;;;1.10;;
72559;SDS011;62987;52.382;9.752;2022-08-30T13:26:17;7.22;;;1.83;;
72559;SDS011;62987;52.382;9.752;2022-08-30T13:28:51;4.68;;;1.50;;
72559;SDS011;62987;52.382;9.752;2022-08-30T13:31:24;2.40;;;1.15;;
72559;SDS011;62987;52.382;9.752;2022-08-30T13:33:53;2.97;;;1.35;;
72559;SDS011;62987;52.382;9.752;2022-08-30T13:36:24;2.50;;;1.00;;
72559;SDS011;62987;52.382;9.752;2022-08-30T13:38:56;5.15;;;1.25;;
72559;SDS011;62987;52.382;9.752;2022-08-30T13:41:26;3.90;;;1.35;;
72559;SDS011;62987;52.382;9.752;2022-08-30T13:44:00;4.25;;;1.20;;
72559;SDS011;62987;52.382;9.752;2022-08-30T13:46:40;4.35;;;1.10;;
72559;SDS011;62987;52.382;9.752;2022-08-30T13:49:19;4.03;;;1.40;;
72559;SDS011;62987;52.382;9.752;2022-08-30T13:52:10;4.57;;;1.23;;
72559;SDS011;62987;52.382;9.752;2022-08-30T13:54:50;4.20;;;1.33;;
72559;SDS011;62987;52.382;9.752;2022-08-30T13:57:20;4.80;;;1.35;;
72559;SDS011;62987;52.382;9.752;2022-08-30T14:00:12;2.97;;;1.48;;
72559;SDS011;62987;52.382;9.752;2022-08-30T14:05:21;3.08;;;1.20;;
72559;SDS011;62987;52.382;9.752;2022-08-30T14:08:11;3.72;;;1.10;;
72559;SDS011;62987;52.382;9.752;2022-08-30T14:11:02;4.22;;;1.15;;
72559;SDS011;62987;52.382;9.752;2022-08-30T14:13:31;3.58;;;1.30;;
72559;SDS011;62987;52.382;9.752;2022-08-30T14:16:00;2.25;;;1.02;;
72559;SDS011;62987;52.382;9.752;2022-08-30T14:18:51;2.83;;;0.93;;
72559;SDS011;62987;52.382;9.752;2022-08-30T14:21:20;2.97;;;1.35;;
72559;SDS011;62987;52.382;9.752;2022-08-30T14:23:50;3.17;;;1.10;;
72559;SDS011;62987;52.382;9.752;2022-08-30T14:26:20;3.53;;;1.15;;
72559;SDS011;62987;52.382;9.752;2022-08-30T14:31:19;4.25;;;1.20;;
72559;SDS011;62987;52.382;9.752;2022-08-30T14:33:48;4.43;;;1.10;;
72559;SDS011;62987;52.382;9.752;2022-08-30T14:36:16;5.80;;;1.30;;
72559;SDS011;62987;52.382;9.752;2022-08-30T14:38:46;2.35;;;1.13;;
72559;SDS011;62987;52.382;9.752;2022-08-30T14:41:14;3.45;;;1.13;;
72559;SDS011;62987;52.382;9.752;2022-08-30T14:43:44;3.05;;;0.93;;
72559;SDS011;62987;52.382;9.752;2022-08-30T14:46:12;3.33;;;1.10;;
72559;SDS011;62987;52.382;9.752;2022-08-30T14:48:40;2.17;;;0.93;;
72559;SDS011;62987;52.382;9.752;2022-08-30T14:51:13;2.95;;;1.10;;
72559;SDS011;62987;52.382;9.752;2022-08-30T14:53:43;3.80;;;1.10;;
72559;SDS011;62987;52.382;9.752;2022-08-30T14:56:13;3.20;;;1.00;;
72559;SDS011;62987;52.382;9.752;2022-08-30T14:58:47;2.83;;;0.90;;
72559;SDS011;62987;52.382;9.752;2022-08-30T15:01:16;2.88;;;0.98;;
72559;SDS011;62987;52.382;9.752;2022-08-30T15:03:45;2.35;;;0.90;;
72559;SDS011;62987;52.382;9.752;2022-08-30T15:06:14;3.47;;;1.00;;
72559;SDS011;62987;52.382;9.752;2022-08-30T15:08:42;4.97;;;1.15;;
72559;SDS011;62987;52.382;9.752;2022-08-30T15:11:14;3.13;;;1.08;;
72559;SDS011;62987;52.382;9.752;2022-08-30T15:13:45;2.80;;;1.08;;
72559;SDS011;62987;52.382;9.752;2022-08-30T15:16:15;2.28;;;1.10;;
72559;SDS011;62987;52.382;9.752;2022-08-30T15:18:46;2.55;;;1.00;;
72559;SDS011;62987;52.382;9.752;2022-08-30T15:21:20;3.33;;;0.93;;
72559;SDS011;62987;52.382;9.752;2022-08-30T15:23:49;3.42;;;1.17;;
72559;SDS011;62987;52.382;9.752;2022-08-30T15:26:18;1.80;;;0.82;;
72559;SDS011;62987;52.382;9.752;2022-08-30T15:28:46;4.45;;;1.40;;
72559;SDS011;62987;52.382;9.752;2022-08-30T15:31:15;2.30;;;0.90;;
72559;SDS011;62987;52.382;9.752;2022-08-30T15:33:48;3.97;;;1.55;;
72559;SDS011;62987;52.382;9.752;2022-08-30T15:36:17;3.13;;;1.17;;
72559;SDS011;62987;52.382;9.752;2022-08-30T15:38:45;2.90;;;0.90;;
72559;SDS011;62987;52.382;9.752;2022-08-30T15:41:13;2.28;;;0.80;;
72559;SDS011;62987;52.382;9.752;2022-08-30T15:43:42;1.95;;;1.00;;